Gorham, North Dakota
Current Conditions -  °F | °C
As of 10:15 AM on Thursday 27 Nov 2014 (Local Time) from K20U Reporting Station
Overcast Overcast  
Wind Chill:   Ceiling: 1200
Heat Index: 23°   Visibility: 10mi
Dew Point: 21°   Wind: 21mph
Humidity: 93%   Direction: 160°SSE
Pressure: 29.96"   Gusts: 29mph
Location:  47.131°N, 103.355°W
Report Text: K20U 271715Z AUTO 16018G25KT 10SM BKN012 BKN070 OVC080 M05/M06 A2996 RMK AO2
Loading
Personal Weather Stations






























Interactive Weather Map New forecast layout! Learn more

10-Day Weather Forecast

Advertisements
Track Severe Weather on mobile